sensor_id;sensor_type;location;lat;lon;timestamp;pressure;altitude;pressure_sealevel;temperature;humidity
61528;BME280;47395;42.032;-8.634;2023-03-21T00:00:59;101525.00;;;13.45;73.58
61528;BME280;47395;42.032;-8.634;2023-03-21T00:03:03;101525.06;;;13.43;73.80
61528;BME280;47395;42.032;-8.634;2023-03-21T00:05:04;101525.06;;;13.43;73.90
61528;BME280;47395;42.032;-8.634;2023-03-21T00:07:05;101524.03;;;13.48;73.86
61528;BME280;47395;42.032;-8.634;2023-03-21T00:09:06;101524.59;;;13.54;73.88
61528;BME280;47395;42.032;-8.634;2023-03-21T00:11:08;101515.63;;;13.57;73.77
61528;BME280;47395;42.032;-8.634;2023-03-21T00:13:11;101522.69;;;13.76;73.73
61528;BME280;47395;42.032;-8.634;2023-03-21T00:15:12;101517.22;;;13.79;73.22
61528;BME280;47395;42.032;-8.634;2023-03-21T00:17:13;101508.28;;;13.81;72.96
61528;BME280;47395;42.032;-8.634;2023-03-21T00:19:16;101511.16;;;13.77;72.99
61528;BME280;47395;42.032;-8.634;2023-03-21T00:21:21;101517.84;;;13.84;72.82
61528;BME280;47395;42.032;-8.634;2023-03-21T00:23:29;101519.03;;;13.78;72.95
61528;BME280;47395;42.032;-8.634;2023-03-21T00:25:30;101514.44;;;13.82;73.15
61528;BME280;47395;42.032;-8.634;2023-03-21T00:27:33;101509.13;;;13.82;73.02
61528;BME280;47395;42.032;-8.634;2023-03-21T00:29:33;101509.63;;;13.90;72.77
61528;BME280;47395;42.032;-8.634;2023-03-21T00:31:35;101506.97;;;13.90;72.23
61528;BME280;47395;42.032;-8.634;2023-03-21T00:33:37;101517.09;;;13.82;72.68
61528;BME280;47395;42.032;-8.634;2023-03-21T00:35:40;101509.63;;;13.90;72.74
61528;BME280;47395;42.032;-8.634;2023-03-21T00:37:47;101507.97;;;13.88;72.45
61528;BME280;47395;42.032;-8.634;2023-03-21T00:39:48;101499.31;;;13.84;72.59
61528;BME280;47395;42.032;-8.634;2023-03-21T00:41:49;101502.59;;;13.89;72.85
61528;BME280;47395;42.032;-8.634;2023-03-21T00:43:51;101488.97;;;13.79;73.08
61528;BME280;47395;42.032;-8.634;2023-03-21T00:45:56;101494.94;;;13.83;72.87
61528;BME280;47395;42.032;-8.634;2023-03-21T00:47:57;101489.66;;;13.83;72.81
61528;BME280;47395;42.032;-8.634;2023-03-21T00:49:58;101493.94;;;13.86;72.85
61528;BME280;47395;42.032;-8.634;2023-03-21T00:52:02;101494.81;;;13.86;72.94
61528;BME280;47395;42.032;-8.634;2023-03-21T00:54:06;101490.13;;;13.91;72.98
61528;BME280;47395;42.032;-8.634;2023-03-21T00:56:07;101497.69;;;13.99;72.65
61528;BME280;47395;42.032;-8.634;2023-03-21T00:58:08;101495.13;;;13.98;72.85
61528;BME280;47395;42.032;-8.634;2023-03-21T01:00:11;101492.00;;;13.89;73.15
61528;BME280;47395;42.032;-8.634;2023-03-21T01:02:13;101497.19;;;13.73;73.25
61528;BME280;47395;42.032;-8.634;2023-03-21T01:04:14;101502.34;;;13.76;73.36
61528;BME280;47395;42.032;-8.634;2023-03-21T01:06:18;101510.00;;;13.82;73.33
61528;BME280;47395;42.032;-8.634;2023-03-21T01:08:20;101509.47;;;13.76;73.22
61528;BME280;47395;42.032;-8.634;2023-03-21T01:10:23;101501.66;;;13.73;73.01
61528;BME280;47395;42.032;-8.634;2023-03-21T01:12:23;101508.28;;;13.81;73.49
61528;BME280;47395;42.032;-8.634;2023-03-21T01:14:24;101504.53;;;13.86;73.30
61528;BME280;47395;42.032;-8.634;2023-03-21T01:16:27;101499.25;;;13.86;73.30
61528;BME280;47395;42.032;-8.634;2023-03-21T01:18:29;101505.34;;;13.88;73.21
61528;BME280;47395;42.032;-8.634;2023-03-21T01:20:30;101498.75;;;13.77;73.53
61528;BME280;47395;42.032;-8.634;2023-03-21T01:22:31;101496.28;;;13.74;73.74
61528;BME280;47395;42.032;-8.634;2023-03-21T01:24:32;101493.31;;;13.80;73.59
61528;BME280;47395;42.032;-8.634;2023-03-21T01:26:33;101495.75;;;13.85;73.61
61528;BME280;47395;42.032;-8.634;2023-03-21T01:28:35;101501.81;;;13.87;73.50
61528;BME280;47395;42.032;-8.634;2023-03-21T01:30:36;101504.31;;;13.90;73.41
61528;BME280;47395;42.032;-8.634;2023-03-21T01:32:37;101501.81;;;13.87;73.29
61528;BME280;47395;42.032;-8.634;2023-03-21T01:34:38;101496.84;;;13.81;73.39
61528;BME280;47395;42.032;-8.634;2023-03-21T01:36:40;101502.69;;;13.88;73.55
61528;BME280;47395;42.032;-8.634;2023-03-21T01:38:45;101500.41;;;13.62;73.81
61528;BME280;47395;42.032;-8.634;2023-03-21T01:40:48;101487.47;;;13.56;74.02
61528;BME280;47395;42.032;-8.634;2023-03-21T01:43:34;101478.38;;;13.79;73.77
61528;BME280;47395;42.032;-8.634;2023-03-21T01:48:41;101487.56;;;13.90;73.62
61528;BME280;47395;42.032;-8.634;2023-03-21T01:50:43;101490.06;;;13.93;73.73
61528;BME280;47395;42.032;-8.634;2023-03-21T01:52:57;101482.09;;;13.93;73.63
61528;BME280;47395;42.032;-8.634;2023-03-21T01:55:03;101480.34;;;13.93;73.81
61528;BME280;47395;42.032;-8.634;2023-03-21T01:57:21;101483.53;;;14.00;73.70
61528;BME280;47395;42.032;-8.634;2023-03-21T01:59:40;101475.78;;;13.95;73.78
61528;BME280;47395;42.032;-8.634;2023-03-21T02:02:04;101478.38;;;13.97;73.64
61528;BME280;47395;42.032;-8.634;2023-03-21T02:04:11;101467.91;;;13.94;73.81
61528;BME280;47395;42.032;-8.634;2023-03-21T02:06:45;101459.81;;;13.97;73.95
61528;BME280;47395;42.032;-8.634;2023-03-21T02:09:04;101449.22;;;13.97;74.16
61528;BME280;47395;42.032;-8.634;2023-03-21T02:11:08;101444.94;;;13.94;74.18
61528;BME280;47395;42.032;-8.634;2023-03-21T02:13:16;101433.56;;;13.92;74.43
61528;BME280;47395;42.032;-8.634;2023-03-21T02:15:17;101442.53;;;13.90;74.66
61528;BME280;47395;42.032;-8.634;2023-03-21T02:18:01;101433.50;;;13.94;74.78
61528;BME280;47395;42.032;-8.634;2023-03-21T02:28:42;101423.28;;;13.86;75.27
61528;BME280;47395;42.032;-8.634;2023-03-21T02:31:03;101423.28;;;13.86;75.05
61528;BME280;47395;42.032;-8.634;2023-03-21T02:36:16;101429.72;;;13.45;75.90
61528;BME280;47395;42.032;-8.634;2023-03-21T02:39:09;101426.22;;;13.27;76.34
61528;BME280;47395;42.032;-8.634;2023-03-21T02:41:05;101432.06;;;13.34;77.01
61528;BME280;47395;42.032;-8.634;2023-03-21T02:43:33;101426.53;;;13.38;76.92
61528;BME280;47395;42.032;-8.634;2023-03-21T02:45:45;101436.53;;;13.51;76.74
61528;BME280;47395;42.032;-8.634;2023-03-21T02:47:51;101435.31;;;13.39;76.56
61528;BME280;47395;42.032;-8.634;2023-03-21T02:50:40;101431.72;;;13.22;76.86
61528;BME280;47395;42.032;-8.634;2023-03-21T02:52:45;101426.75;;;13.34;76.65
61528;BME280;47395;42.032;-8.634;2023-03-21T02:54:48;101438.75;;;13.41;76.56
61528;BME280;47395;42.032;-8.634;2023-03-21T02:56:56;101434.31;;;13.41;76.44
61528;BME280;47395;42.032;-8.634;2023-03-21T02:58:59;101440.97;;;13.50;76.49
61528;BME280;47395;42.032;-8.634;2023-03-21T03:01:01;101441.63;;;13.55;76.08
61528;BME280;47395;42.032;-8.634;2023-03-21T03:03:07;101445.78;;;13.60;76.15
61528;BME280;47395;42.032;-8.634;2023-03-21T03:05:15;101445.66;;;13.63;76.03
61528;BME280;47395;42.032;-8.634;2023-03-21T03:07:26;101442.16;;;13.62;76.00
61528;BME280;47395;42.032;-8.634;2023-03-21T03:09:45;101449.22;;;13.62;76.14
61528;BME280;47395;42.032;-8.634;2023-03-21T03:11:54;101445.50;;;13.66;76.13
61528;BME280;47395;42.032;-8.634;2023-03-21T03:17:02;101440.31;;;13.45;76.71
61528;BME280;47395;42.032;-8.634;2023-03-21T03:19:10;101439.47;;;13.44;77.20
61528;BME280;47395;42.032;-8.634;2023-03-21T03:21:43;101448.38;;;13.42;77.56
61528;BME280;47395;42.032;-8.634;2023-03-21T03:23:54;101440.19;;;13.48;77.41
61528;BME280;47395;42.032;-8.634;2023-03-21T03:26:03;101439.19;;;13.51;77.50
61528;BME280;47395;42.032;-8.634;2023-03-21T03:28:06;101434.81;;;13.50;77.74
61528;BME280;47395;42.032;-8.634;2023-03-21T03:30:09;101444.41;;;13.52;77.81
61528;BME280;47395;42.032;-8.634;2023-03-21T03:32:20;101435.72;;;13.49;78.53
61528;BME280;47395;42.032;-8.634;2023-03-21T03:34:29;101422.09;;;13.39;78.95
61528;BME280;47395;42.032;-8.634;2023-03-21T03:36:39;101431.03;;;13.55;78.26
61528;BME280;47395;42.032;-8.634;2023-03-21T03:38:47;101427.25;;;13.60;78.29
61528;BME280;47395;42.032;-8.634;2023-03-21T03:41:03;101420.03;;;13.63;77.95
61528;BME280;47395;42.032;-8.634;2023-03-21T03:43:22;101414.41;;;13.69;77.80
61528;BME280;47395;42.032;-8.634;2023-03-21T03:45:30;101428.81;;;13.81;77.67
61528;BME280;47395;42.032;-8.634;2023-03-21T03:47:47;101418.06;;;13.84;77.53
61528;BME280;47395;42.032;-8.634;2023-03-21T03:52:41;101419.63;;;13.71;77.45
61528;BME280;47395;42.032;-8.634;2023-03-21T03:54:48;101416.31;;;13.67;77.17
61528;BME280;47395;42.032;-8.634;2023-03-21T03:56:51;101419.16;;;13.63;77.31
61528;BME280;47395;42.032;-8.634;2023-03-21T03:58:52;101410.06;;;13.68;77.31
61528;BME280;47395;42.032;-8.634;2023-03-21T04:01:11;101413.47;;;13.70;77.30
61528;BME280;47395;42.032;-8.634;2023-03-21T04:03:12;101422.28;;;13.71;77.23
61528;BME280;47395;42.032;-8.634;2023-03-21T04:05:14;101417.59;;;13.58;77.26
61528;BME280;47395;42.032;-8.634;2023-03-21T04:07:15;101417.00;;;13.53;77.51
61528;BME280;47395;42.032;-8.634;2023-03-21T04:09:17;101420.88;;;13.64;77.31
61528;BME280;47395;42.032;-8.634;2023-03-21T04:11:18;101412.84;;;13.65;77.12
61528;BME280;47395;42.032;-8.634;2023-03-21T04:13:24;101406.31;;;13.73;77.04
61528;BME280;47395;42.032;-8.634;2023-03-21T04:15:46;101407.72;;;13.80;76.61
61528;BME280;47395;42.032;-8.634;2023-03-21T04:17:49;101412.31;;;13.76;76.42
61528;BME280;47395;42.032;-8.634;2023-03-21T04:19:50;101406.72;;;13.82;76.02
61528;BME280;47395;42.032;-8.634;2023-03-21T04:21:56;101407.72;;;13.80;76.00
61528;BME280;47395;42.032;-8.634;2023-03-21T04:23:57;101406.88;;;13.79;76.05
61528;BME280;47395;42.032;-8.634;2023-03-21T04:25:58;101410.75;;;13.72;76.42
61528;BME280;47395;42.032;-8.634;2023-03-21T04:28:07;101389.66;;;13.70;76.23
61528;BME280;47395;42.032;-8.634;2023-03-21T04:30:14;101397.84;;;13.66;76.29
61528;BME280;47395;42.032;-8.634;2023-03-21T04:32:24;101406.31;;;13.73;76.54
61528;BME280;47395;42.032;-8.634;2023-03-21T04:34:33;101401.78;;;13.75;76.02
61528;BME280;47395;42.032;-8.634;2023-03-21T04:36:40;101401.50;;;13.63;76.53
61528;BME280;47395;42.032;-8.634;2023-03-21T04:38:50;101400.34;;;13.51;76.48
61528;BME280;47395;42.032;-8.634;2023-03-21T04:40:51;101411.84;;;13.68;76.12
61528;BME280;47395;42.032;-8.634;2023-03-21T04:43:01;101409.59;;;13.78;76.23
61528;BME280;47395;42.032;-8.634;2023-03-21T04:45:03;101410.75;;;13.72;76.58
61528;BME280;47395;42.032;-8.634;2023-03-21T04:47:04;101412.25;;;13.78;76.23
61528;BME280;47395;42.032;-8.634;2023-03-21T04:49:06;101424.72;;;13.76;76.20
61528;BME280;47395;42.032;-8.634;2023-03-21T04:51:08;101419.09;;;13.82;76.26
61528;BME280;47395;42.032;-8.634;2023-03-21T04:53:09;101423.91;;;13.56;76.83
61528;BME280;47395;42.032;-8.634;2023-03-21T04:55:10;101411.16;;;13.64;76.53
61528;BME280;47395;42.032;-8.634;2023-03-21T04:57:12;101411.06;;;13.66;76.69
61528;BME280;47395;42.032;-8.634;2023-03-21T04:59:15;101415.44;;;13.67;76.72
61528;BME280;47395;42.032;-8.634;2023-03-21T05:03:39;101418.69;;;13.72;76.81
61528;BME280;47395;42.032;-8.634;2023-03-21T05:05:40;101429.13;;;13.57;77.43
61528;BME280;47395;42.032;-8.634;2023-03-21T05:07:41;101429.53;;;13.50;78.10
61528;BME280;47395;42.032;-8.634;2023-03-21T05:09:42;101431.78;;;13.57;77.70
61528;BME280;47395;42.032;-8.634;2023-03-21T05:11:43;101435.72;;;13.31;78.56
61528;BME280;47395;42.032;-8.634;2023-03-21T05:13:47;101441.75;;;13.52;78.24
61528;BME280;47395;42.032;-8.634;2023-03-21T05:15:48;101443.94;;;13.62;77.74
61528;BME280;47395;42.032;-8.634;2023-03-21T05:17:49;101431.78;;;13.57;78.01
61528;BME280;47395;42.032;-8.634;2023-03-21T05:19:50;101446.88;;;13.73;77.64
61528;BME280;47395;42.032;-8.634;2023-03-21T05:21:52;101442.72;;;13.69;77.25
61528;BME280;47395;42.032;-8.634;2023-03-21T05:23:56;101455.22;;;13.65;77.48
61528;BME280;47395;42.032;-8.634;2023-03-21T05:25:58;101453.44;;;13.83;77.00
61528;BME280;47395;42.032;-8.634;2023-03-21T05:28:12;101451.34;;;13.73;77.19
61528;BME280;47395;42.032;-8.634;2023-03-21T05:30:17;101457.72;;;13.86;77.19
61528;BME280;47395;42.032;-8.634;2023-03-21T05:32:19;101452.09;;;13.92;76.80
61528;BME280;47395;42.032;-8.634;2023-03-21T05:34:21;101455.16;;;13.84;77.03
61528;BME280;47395;42.032;-8.634;2023-03-21T05:36:22;101452.41;;;14.04;76.61
61528;BME280;47395;42.032;-8.634;2023-03-21T05:38:24;101458.88;;;13.98;76.55
61528;BME280;47395;42.032;-8.634;2023-03-21T05:40:27;101444.69;;;13.99;76.56
61528;BME280;47395;42.032;-8.634;2023-03-21T05:42:31;101448.91;;;14.03;76.26
61528;BME280;47395;42.032;-8.634;2023-03-21T05:44:32;101444.31;;;14.07;76.11
61528;BME280;47395;42.032;-8.634;2023-03-21T05:46:35;101445.16;;;14.07;76.11
61528;BME280;47395;42.032;-8.634;2023-03-21T05:48:37;101445.16;;;14.07;75.89
61528;BME280;47395;42.032;-8.634;2023-03-21T05:50:46;101444.59;;;14.18;75.58
61528;BME280;47395;42.032;-8.634;2023-03-21T05:52:52;101434.00;;;14.18;75.49
61528;BME280;47395;42.032;-8.634;2023-03-21T05:54:53;101440.72;;;14.08;75.73
61528;BME280;47395;42.032;-8.634;2023-03-21T05:56:57;101448.53;;;14.11;75.89
61528;BME280;47395;42.032;-8.634;2023-03-21T05:59:18;101458.41;;;13.90;76.53
61528;BME280;47395;42.032;-8.634;2023-03-21T06:01:20;101453.13;;;13.72;77.05
61528;BME280;47395;42.032;-8.634;2023-03-21T06:03:29;101441.50;;;13.57;77.75
61528;BME280;47395;42.032;-8.634;2023-03-21T06:05:35;101445.56;;;13.64;77.78
61528;BME280;47395;42.032;-8.634;2023-03-21T06:07:36;101440.66;;;13.92;77.02
61528;BME280;47395;42.032;-8.634;2023-03-21T06:09:37;101440.88;;;14.05;76.67
61528;BME280;47395;42.032;-8.634;2023-03-21T06:11:46;101444.56;;;13.84;77.14
61528;BME280;47395;42.032;-8.634;2023-03-21T06:14:23;101442.78;;;13.85;77.26
61528;BME280;47395;42.032;-8.634;2023-03-21T06:16:47;101443.41;;;13.90;77.44
61528;BME280;47395;42.032;-8.634;2023-03-21T06:18:48;101439.13;;;13.88;77.34
61528;BME280;47395;42.032;-8.634;2023-03-21T06:21:05;101435.03;;;13.98;77.11
61528;BME280;47395;42.032;-8.634;2023-03-21T06:23:06;101441.22;;;13.99;76.88
61528;BME280;47395;42.032;-8.634;2023-03-21T06:25:07;101432.78;;;14.08;76.55
61528;BME280;47395;42.032;-8.634;2023-03-21T06:27:09;101430.13;;;14.08;76.63
61528;BME280;47395;42.032;-8.634;2023-03-21T06:29:22;101433.72;;;14.07;76.64
61528;BME280;47395;42.032;-8.634;2023-03-21T06:31:23;101429.59;;;14.01;76.63
61528;BME280;47395;42.032;-8.634;2023-03-21T06:33:29;101430.44;;;14.02;76.54
61528;BME280;47395;42.032;-8.634;2023-03-21T06:35:31;101434.97;;;14.00;76.67
61528;BME280;47395;42.032;-8.634;2023-03-21T06:37:32;101443.78;;;14.00;77.00
61528;BME280;47395;42.032;-8.634;2023-03-21T06:39:34;101443.53;;;14.05;76.82
61528;BME280;47395;42.032;-8.634;2023-03-21T06:41:35;101447.13;;;14.04;76.92
61528;BME280;47395;42.032;-8.634;2023-03-21T06:43:37;101448.91;;;14.03;76.99
61528;BME280;47395;42.032;-8.634;2023-03-21T06:45:39;101460.38;;;14.04;77.04
61528;BME280;47395;42.032;-8.634;2023-03-21T06:47:42;101448.13;;;14.01;76.86
61528;BME280;47395;42.032;-8.634;2023-03-21T06:49:51;101448.00;;;14.04;76.92
61528;BME280;47395;42.032;-8.634;2023-03-21T06:51:52;101458.72;;;14.01;77.23
61528;BME280;47395;42.032;-8.634;2023-03-21T06:53:54;101454.44;;;13.99;77.20
61528;BME280;47395;42.032;-8.634;2023-03-21T06:56:06;101450.53;;;14.06;77.19
61528;BME280;47395;42.032;-8.634;2023-03-21T06:58:09;101446.41;;;14.18;76.81
61528;BME280;47395;42.032;-8.634;2023-03-21T07:00:11;101445.84;;;14.29;76.33
61528;BME280;47395;42.032;-8.634;2023-03-21T07:02:17;101442.81;;;14.19;76.36
61528;BME280;47395;42.032;-8.634;2023-03-21T07:04:30;101442.44;;;14.09;76.78
61528;BME280;47395;42.032;-8.634;2023-03-21T07:06:32;101441.41;;;14.12;76.70
61528;BME280;47395;42.032;-8.634;2023-03-21T07:08:33;101438.34;;;14.19;76.46
61528;BME280;47395;42.032;-8.634;2023-03-21T07:10:36;101437.47;;;14.03;76.67
61528;BME280;47395;42.032;-8.634;2023-03-21T07:12:40;101435.09;;;14.14;76.70
61528;BME280;47395;42.032;-8.634;2023-03-21T07:14:54;101438.28;;;14.21;76.56
61528;BME280;47395;42.032;-8.634;2023-03-21T07:16:55;101438.50;;;14.34;76.31
61528;BME280;47395;42.032;-8.634;2023-03-21T07:18:56;101432.63;;;14.45;76.28
61528;BME280;47395;42.032;-8.634;2023-03-21T07:20:57;101438.63;;;14.65;75.52
61528;BME280;47395;42.032;-8.634;2023-03-21T07:22:58;101448.19;;;14.67;75.32
61528;BME280;47395;42.032;-8.634;2023-03-21T07:25:01;101447.53;;;14.64;75.31
61528;BME280;47395;42.032;-8.634;2023-03-21T07:27:01;101443.09;;;14.64;74.76
61528;BME280;47395;42.032;-8.634;2023-03-21T07:29:02;101443.94;;;14.65;74.98
61528;BME280;47395;42.032;-8.634;2023-03-21T07:31:05;101441.84;;;14.54;75.18
61528;BME280;47395;42.032;-8.634;2023-03-21T07:33:06;101447.53;;;14.64;74.72
61528;BME280;47395;42.032;-8.634;2023-03-21T07:35:10;101447.94;;;14.56;74.99
61528;BME280;47395;42.032;-8.634;2023-03-21T07:37:11;101449.00;;;14.69;74.99
61528;BME280;47395;42.032;-8.634;2023-03-21T07:39:12;101446.84;;;14.60;74.93
61528;BME280;47395;42.032;-8.634;2023-03-21T07:41:13;101447.16;;;14.54;75.09
61528;BME280;47395;42.032;-8.634;2023-03-21T07:43:14;101453.94;;;14.75;74.85
61528;BME280;47395;42.032;-8.634;2023-03-21T07:45:17;101444.44;;;14.71;74.67
61528;BME280;47395;42.032;-8.634;2023-03-21T07:47:22;101447.66;;;14.78;74.79
61528;BME280;47395;42.032;-8.634;2023-03-21T07:49:23;101453.75;;;14.80;74.91
61528;BME280;47395;42.032;-8.634;2023-03-21T07:51:25;101456.63;;;15.08;74.39
61528;BME280;47395;42.032;-8.634;2023-03-21T07:53:26;101448.75;;;15.06;73.86
61528;BME280;47395;42.032;-8.634;2023-03-21T07:55:28;101448.16;;;15.33;73.37
61528;BME280;47395;42.032;-8.634;2023-03-21T07:57:29;101446.34;;;15.34;73.21
61528;BME280;47395;42.032;-8.634;2023-03-21T07:59:30;101452.94;;;15.43;73.22
61528;BME280;47395;42.032;-8.634;2023-03-21T08:01:31;101449.50;;;15.71;72.27
61528;BME280;47395;42.032;-8.634;2023-03-21T08:03:32;101444.88;;;15.89;71.65
61528;BME280;47395;42.032;-8.634;2023-03-21T08:05:34;101443.53;;;16.13;70.92
61528;BME280;47395;42.032;-8.634;2023-03-21T08:07:35;101447.91;;;16.28;70.35
61528;BME280;47395;42.032;-8.634;2023-03-21T08:09:36;101448.75;;;16.43;69.71
61528;BME280;47395;42.032;-8.634;2023-03-21T08:11:37;101449.22;;;16.50;69.01
61528;BME280;47395;42.032;-8.634;2023-03-21T08:13:39;101450.00;;;16.38;69.53
61528;BME280;47395;42.032;-8.634;2023-03-21T08:15:40;101456.25;;;16.37;68.97
61528;BME280;47395;42.032;-8.634;2023-03-21T08:17:41;101455.69;;;16.02;69.95
61528;BME280;47395;42.032;-8.634;2023-03-21T08:19:45;101461.97;;;16.16;70.06
61528;BME280;47395;42.032;-8.634;2023-03-21T08:21:48;101456.50;;;16.03;70.07
61528;BME280;47395;42.032;-8.634;2023-03-21T08:23:49;101464.13;;;16.09;70.47
61528;BME280;47395;42.032;-8.634;2023-03-21T08:25:52;101462.63;;;16.20;69.86
61528;BME280;47395;42.032;-8.634;2023-03-21T08:27:53;101470.97;;;16.57;69.68
61528;BME280;47395;42.032;-8.634;2023-03-21T08:29:53;101470.41;;;16.81;68.61
61528;BME280;47395;42.032;-8.634;2023-03-21T08:31:55;101462.38;;;16.95;67.68
61528;BME280;47395;42.032;-8.634;2023-03-21T08:33:56;101468.00;;;16.91;67.46
61528;BME280;47395;42.032;-8.634;2023-03-21T08:36:01;101463.97;;;16.98;67.22
61528;BME280;47395;42.032;-8.634;2023-03-21T08:38:02;101471.94;;;16.56;67.09
61528;BME280;47395;42.032;-8.634;2023-03-21T08:40:05;101461.63;;;16.93;67.61
61528;BME280;47395;42.032;-8.634;2023-03-21T08:42:10;101475.56;;;17.12;67.17
61528;BME280;47395;42.032;-8.634;2023-03-21T08:44:11;101474.34;;;17.03;66.97
61528;BME280;47395;42.032;-8.634;2023-03-21T08:46:12;101476.13;;;17.17;66.43
61528;BME280;47395;42.032;-8.634;2023-03-21T08:48:13;101478.81;;;17.02;66.96
61528;BME280;47395;42.032;-8.634;2023-03-21T08:50:16;101484.31;;;17.41;65.89
61528;BME280;47395;42.032;-8.634;2023-03-21T08:52:17;101487.00;;;17.82;65.22
61528;BME280;47395;42.032;-8.634;2023-03-21T08:54:20;101484.50;;;18.19;63.50
61528;BME280;47395;42.032;-8.634;2023-03-21T08:56:22;101487.91;;;18.60;62.18
61528;BME280;47395;42.032;-8.634;2023-03-21T08:58:22;101494.72;;;18.64;61.42
61528;BME280;47395;42.032;-8.634;2023-03-21T09:00:24;101493.94;;;18.88;60.94
61528;BME280;47395;42.032;-8.634;2023-03-21T09:02:24;101494.19;;;19.23;59.22
61528;BME280;47395;42.032;-8.634;2023-03-21T09:04:26;101498.59;;;19.95;57.76
61528;BME280;47395;42.032;-8.634;2023-03-21T09:06:27;101505.22;;;20.03;56.38
61528;BME280;47395;42.032;-8.634;2023-03-21T09:08:30;101504.38;;;19.78;56.43
61528;BME280;47395;42.032;-8.634;2023-03-21T09:10:30;101506.69;;;19.82;57.23
61528;BME280;47395;42.032;-8.634;2023-03-21T09:12:35;101506.66;;;19.71;57.41
61528;BME280;47395;42.032;-8.634;2023-03-21T09:14:37;101513.78;;;19.59;56.45
61528;BME280;47395;42.032;-8.634;2023-03-21T09:16:37;101502.59;;;19.29;58.22
61528;BME280;47395;42.032;-8.634;2023-03-21T09:18:38;101503.94;;;19.60;58.10
61528;BME280;47395;42.032;-8.634;2023-03-21T09:20:48;101504.66;;;21.02;53.98
61528;BME280;47395;42.032;-8.634;2023-03-21T09:22:50;101507.47;;;21.99;51.19
61528;BME280;47395;42.032;-8.634;2023-03-21T09:24:53;101510.66;;;21.93;50.34
61528;BME280;47395;42.032;-8.634;2023-03-21T09:26:55;101514.22;;;21.93;50.77
61528;BME280;47395;42.032;-8.634;2023-03-21T09:28:57;101513.69;;;21.67;51.47
61528;BME280;47395;42.032;-8.634;2023-03-21T09:31:00;101509.41;;;21.43;51.86
61528;BME280;47395;42.032;-8.634;2023-03-21T09:33:04;101508.88;;;21.49;52.40
61528;BME280;47395;42.032;-8.634;2023-03-21T09:35:12;101508.66;;;21.85;51.97
61528;BME280;47395;42.032;-8.634;2023-03-21T09:37:13;101511.66;;;21.91;50.40
61528;BME280;47395;42.032;-8.634;2023-03-21T09:39:16;101516.50;;;21.76;50.95
61528;BME280;47395;42.032;-8.634;2023-03-21T09:46:14;101512.81;;;21.00;53.48
61528;BME280;47395;42.032;-8.634;2023-03-21T09:48:29;101516.34;;;20.67;53.76
61528;BME280;47395;42.032;-8.634;2023-03-21T09:50:35;101520.09;;;20.30;55.25
61528;BME280;47395;42.032;-8.634;2023-03-21T09:52:45;101520.19;;;20.28;54.57
61528;BME280;47395;42.032;-8.634;2023-03-21T09:54:48;101509.97;;;19.86;55.97
61528;BME280;47395;42.032;-8.634;2023-03-21T09:56:52;101513.25;;;20.14;56.35
61528;BME280;47395;42.032;-8.634;2023-03-21T09:58:56;101514.03;;;20.51;55.44
61528;BME280;47395;42.032;-8.634;2023-03-21T10:01:28;101515.22;;;20.35;55.86
61528;BME280;47395;42.032;-8.634;2023-03-21T10:03:32;101510.66;;;20.01;56.61
61528;BME280;47395;42.032;-8.634;2023-03-21T10:05:38;101504.91;;;19.94;55.69
61528;BME280;47395;42.032;-8.634;2023-03-21T10:07:43;101500.50;;;20.29;56.17
61528;BME280;47395;42.032;-8.634;2023-03-21T10:09:47;101509.03;;;20.92;53.09
61528;BME280;47395;42.032;-8.634;2023-03-21T10:11:57;101495.94;;;21.87;51.10
61528;BME280;47395;42.032;-8.634;2023-03-21T10:14:11;101496.25;;;22.36;49.18
61528;BME280;47395;42.032;-8.634;2023-03-21T10:16:16;101493.56;;;23.68;46.80
61528;BME280;47395;42.032;-8.634;2023-03-21T10:18:22;101493.22;;;26.49;41.23
61528;BME280;47395;42.032;-8.634;2023-03-21T10:20:30;101498.34;;;28.20;36.60
61528;BME280;47395;42.032;-8.634;2023-03-21T10:22:31;101505.19;;;30.04;32.79
61528;BME280;47395;42.032;-8.634;2023-03-21T10:24:33;101508.97;;;30.33;33.00
61528;BME280;47395;42.032;-8.634;2023-03-21T10:26:34;101501.66;;;30.34;34.13
61528;BME280;47395;42.032;-8.634;2023-03-21T10:28:38;101507.56;;;28.90;34.23
61528;BME280;47395;42.032;-8.634;2023-03-21T10:30:49;101502.41;;;30.95;32.51
61528;BME280;47395;42.032;-8.634;2023-03-21T10:32:50;101501.16;;;32.13;30.88
61528;BME280;47395;42.032;-8.634;2023-03-21T10:34:54;101509.88;;;32.79;29.82
61528;BME280;47395;42.032;-8.634;2023-03-21T10:37:00;101506.47;;;33.67;27.36
61528;BME280;47395;42.032;-8.634;2023-03-21T10:39:19;101518.59;;;34.25;27.73
61528;BME280;47395;42.032;-8.634;2023-03-21T10:41:21;101519.19;;;34.86;26.26
61528;BME280;47395;42.032;-8.634;2023-03-21T10:43:40;101510.59;;;35.47;25.88
61528;BME280;47395;42.032;-8.634;2023-03-21T10:45:47;101508.41;;;35.82;23.91
61528;BME280;47395;42.032;-8.634;2023-03-21T10:47:51;101516.00;;;35.79;24.87
61528;BME280;47395;42.032;-8.634;2023-03-21T10:49:53;101506.53;;;36.01;24.51
61528;BME280;47395;42.032;-8.634;2023-03-21T10:51:57;101510.09;;;36.57;23.45
61528;BME280;47395;42.032;-8.634;2023-03-21T10:54:04;101509.88;;;36.40;23.56
61528;BME280;47395;42.032;-8.634;2023-03-21T10:56:10;101510.16;;;37.00;21.31
61528;BME280;47395;42.032;-8.634;2023-03-21T10:58:20;101514.16;;;38.77;19.38
61528;BME280;47395;42.032;-8.634;2023-03-21T11:00:34;101505.97;;;37.40;20.84
61528;BME280;47395;42.032;-8.634;2023-03-21T11:02:36;101507.69;;;37.77;21.32
61528;BME280;47395;42.032;-8.634;2023-03-21T11:04:42;101505.63;;;37.37;21.94
61528;BME280;47395;42.032;-8.634;2023-03-21T11:06:45;101507.06;;;37.51;21.35
61528;BME280;47395;42.032;-8.634;2023-03-21T11:08:55;101500.97;;;37.06;20.91
61528;BME280;47395;42.032;-8.634;2023-03-21T11:11:24;101502.66;;;36.09;22.23
61528;BME280;47395;42.032;-8.634;2023-03-21T11:13:33;101497.56;;;34.05;26.42
61528;BME280;47395;42.032;-8.634;2023-03-21T11:17:39;101493.94;;;35.23;24.37